sensor_id;sensor_type;location;lat;lon;timestamp;P1;durP1;ratioP1;P2;durP2;ratioP2
18200;SDS011;9226;47.858;9.594;2023-01-24T00:00:34;29.97;;;11.07;;
18200;SDS011;9226;47.858;9.594;2023-01-24T00:02:59;31.23;;;9.57;;
18200;SDS011;9226;47.858;9.594;2023-01-24T00:05:25;25.33;;;9.63;;
18200;SDS011;9226;47.858;9.594;2023-01-24T00:07:50;28.00;;;10.10;;
18200;SDS011;9226;47.858;9.594;2023-01-24T00:10:16;27.13;;;10.00;;
18200;SDS011;9226;47.858;9.594;2023-01-24T00:12:41;24.37;;;9.33;;
18200;SDS011;9226;47.858;9.594;2023-01-24T00:15:07;27.17;;;9.13;;
18200;SDS011;9226;47.858;9.594;2023-01-24T00:17:33;25.43;;;9.37;;
18200;SDS011;9226;47.858;9.594;2023-01-24T00:19:58;27.90;;;9.73;;
18200;SDS011;9226;47.858;9.594;2023-01-24T00:22:24;22.27;;;8.73;;
18200;SDS011;9226;47.858;9.594;2023-01-24T00:24:49;26.80;;;9.63;;
18200;SDS011;9226;47.858;9.594;2023-01-24T00:27:15;25.13;;;8.10;;
18200;SDS011;9226;47.858;9.594;2023-01-24T00:29:41;27.03;;;10.60;;
18200;SDS011;9226;47.858;9.594;2023-01-24T00:32:07;23.83;;;10.00;;
18200;SDS011;9226;47.858;9.594;2023-01-24T00:34:32;29.83;;;10.33;;
18200;SDS011;9226;47.858;9.594;2023-01-24T00:36:58;22.23;;;9.57;;
18200;SDS011;9226;47.858;9.594;2023-01-24T00:39:23;26.97;;;10.57;;
18200;SDS011;9226;47.858;9.594;2023-01-24T00:41:49;25.93;;;9.43;;
18200;SDS011;9226;47.858;9.594;2023-01-24T00:44:14;28.10;;;10.43;;
18200;SDS011;9226;47.858;9.594;2023-01-24T00:46:40;28.97;;;10.37;;
18200;SDS011;9226;47.858;9.594;2023-01-24T00:49:06;24.80;;;9.13;;
18200;SDS011;9226;47.858;9.594;2023-01-24T00:51:32;29.27;;;10.63;;
18200;SDS011;9226;47.858;9.594;2023-01-24T00:53:57;29.17;;;10.50;;
18200;SDS011;9226;47.858;9.594;2023-01-24T00:56:23;25.07;;;9.00;;
18200;SDS011;9226;47.858;9.594;2023-01-24T00:58:48;34.00;;;9.97;;
18200;SDS011;9226;47.858;9.594;2023-01-24T01:01:14;25.50;;;10.47;;
18200;SDS011;9226;47.858;9.594;2023-01-24T01:03:39;32.73;;;9.90;;
18200;SDS011;9226;47.858;9.594;2023-01-24T01:06:06;30.87;;;10.20;;
18200;SDS011;9226;47.858;9.594;2023-01-24T01:08:33;24.97;;;9.17;;
18200;SDS011;9226;47.858;9.594;2023-01-24T01:10:58;25.30;;;9.73;;
18200;SDS011;9226;47.858;9.594;2023-01-24T01:13:25;30.17;;;10.80;;
18200;SDS011;9226;47.858;9.594;2023-01-24T01:15:51;24.40;;;9.57;;
18200;SDS011;9226;47.858;9.594;2023-01-24T01:18:16;23.73;;;9.33;;
18200;SDS011;9226;47.858;9.594;2023-01-24T01:20:48;25.33;;;9.70;;
18200;SDS011;9226;47.858;9.594;2023-01-24T01:23:14;26.33;;;10.07;;
18200;SDS011;9226;47.858;9.594;2023-01-24T01:25:40;26.77;;;8.87;;
18200;SDS011;9226;47.858;9.594;2023-01-24T01:28:05;27.23;;;10.23;;
18200;SDS011;9226;47.858;9.594;2023-01-24T01:30:30;26.30;;;10.47;;
18200;SDS011;9226;47.858;9.594;2023-01-24T01:32:56;28.33;;;10.83;;
18200;SDS011;9226;47.858;9.594;2023-01-24T01:35:21;26.87;;;9.00;;
18200;SDS011;9226;47.858;9.594;2023-01-24T01:37:46;30.80;;;10.80;;
18200;SDS011;9226;47.858;9.594;2023-01-24T01:40:12;25.10;;;8.50;;
18200;SDS011;9226;47.858;9.594;2023-01-24T01:48:47;26.00;;;9.63;;
18200;SDS011;9226;47.858;9.594;2023-01-24T01:50:51;23.17;;;8.53;;
18200;SDS011;9226;47.858;9.594;2023-01-24T01:53:22;22.07;;;8.67;;
18200;SDS011;9226;47.858;9.594;2023-01-24T01:55:54;22.40;;;9.20;;
18200;SDS011;9226;47.858;9.594;2023-01-24T01:58:25;25.87;;;8.90;;
18200;SDS011;9226;47.858;9.594;2023-01-24T02:00:50;27.47;;;8.87;;
18200;SDS011;9226;47.858;9.594;2023-01-24T02:03:18;28.90;;;10.50;;
18200;SDS011;9226;47.858;9.594;2023-01-24T02:06:06;29.87;;;10.50;;
18200;SDS011;9226;47.858;9.594;2023-01-24T02:08:37;25.67;;;9.20;;
18200;SDS011;9226;47.858;9.594;2023-01-24T02:11:03;28.97;;;9.93;;
18200;SDS011;9226;47.858;9.594;2023-01-24T02:13:48;28.93;;;9.77;;
18200;SDS011;9226;47.858;9.594;2023-01-24T02:16:34;28.97;;;9.63;;
18200;SDS011;9226;47.858;9.594;2023-01-24T02:18:59;23.43;;;8.87;;
18200;SDS011;9226;47.858;9.594;2023-01-24T02:21:24;30.57;;;9.57;;
18200;SDS011;9226;47.858;9.594;2023-01-24T02:26:30;23.43;;;8.90;;
18200;SDS011;9226;47.858;9.594;2023-01-24T02:28:57;25.67;;;9.10;;
18200;SDS011;9226;47.858;9.594;2023-01-24T02:31:27;31.00;;;10.47;;
18200;SDS011;9226;47.858;9.594;2023-01-24T02:33:53;28.57;;;10.07;;
18200;SDS011;9226;47.858;9.594;2023-01-24T02:36:30;26.00;;;9.70;;
18200;SDS011;9226;47.858;9.594;2023-01-24T02:39:04;28.17;;;9.60;;
18200;SDS011;9226;47.858;9.594;2023-01-24T02:41:44;29.47;;;10.33;;
18200;SDS011;9226;47.858;9.594;2023-01-24T02:44:20;32.43;;;10.17;;
18200;SDS011;9226;47.858;9.594;2023-01-24T02:46:51;26.67;;;8.97;;
18200;SDS011;9226;47.858;9.594;2023-01-24T02:49:17;28.93;;;9.53;;
18200;SDS011;9226;47.858;9.594;2023-01-24T02:51:42;23.73;;;9.20;;
18200;SDS011;9226;47.858;9.594;2023-01-24T02:54:26;22.97;;;8.77;;
18200;SDS011;9226;47.858;9.594;2023-01-24T02:56:51;23.77;;;8.87;;
18200;SDS011;9226;47.858;9.594;2023-01-24T02:59:35;33.87;;;10.13;;
18200;SDS011;9226;47.858;9.594;2023-01-24T03:02:00;24.80;;;9.00;;
18200;SDS011;9226;47.858;9.594;2023-01-24T03:04:26;33.23;;;9.37;;
18200;SDS011;9226;47.858;9.594;2023-01-24T03:06:51;30.80;;;9.93;;
18200;SDS011;9226;47.858;9.594;2023-01-24T03:09:17;27.07;;;9.00;;
18200;SDS011;9226;47.858;9.594;2023-01-24T03:11:58;25.67;;;8.97;;
18200;SDS011;9226;47.858;9.594;2023-01-24T03:14:44;23.53;;;8.80;;
18200;SDS011;9226;47.858;9.594;2023-01-24T03:17:28;28.53;;;9.17;;
18200;SDS011;9226;47.858;9.594;2023-01-24T03:20:12;23.40;;;8.67;;
18200;SDS011;9226;47.858;9.594;2023-01-24T03:22:57;27.27;;;9.50;;
18200;SDS011;9226;47.858;9.594;2023-01-24T03:25:41;27.60;;;9.10;;
18200;SDS011;9226;47.858;9.594;2023-01-24T03:28:24;26.67;;;9.43;;
18200;SDS011;9226;47.858;9.594;2023-01-24T03:31:08;22.97;;;8.80;;
18200;SDS011;9226;47.858;9.594;2023-01-24T03:33:53;23.27;;;9.67;;
18200;SDS011;9226;47.858;9.594;2023-01-24T03:36:36;20.50;;;8.63;;
18200;SDS011;9226;47.858;9.594;2023-01-24T03:39:02;23.30;;;8.90;;
18200;SDS011;9226;47.858;9.594;2023-01-24T03:41:46;24.03;;;9.03;;
18200;SDS011;9226;47.858;9.594;2023-01-24T03:44:11;25.90;;;8.77;;
18200;SDS011;9226;47.858;9.594;2023-01-24T03:46:36;26.47;;;9.27;;
18200;SDS011;9226;47.858;9.594;2023-01-24T03:49:05;21.57;;;8.50;;
18200;SDS011;9226;47.858;9.594;2023-01-24T03:51:34;25.33;;;9.23;;
18200;SDS011;9226;47.858;9.594;2023-01-24T03:54:18;23.23;;;8.53;;
18200;SDS011;9226;47.858;9.594;2023-01-24T03:56:43;29.93;;;9.53;;
18200;SDS011;9226;47.858;9.594;2023-01-24T03:59:08;24.90;;;10.03;;
18200;SDS011;9226;47.858;9.594;2023-01-24T04:01:34;22.83;;;8.93;;
18200;SDS011;9226;47.858;9.594;2023-01-24T04:03:59;20.87;;;8.10;;
18200;SDS011;9226;47.858;9.594;2023-01-24T04:06:25;18.23;;;7.13;;
18200;SDS011;9226;47.858;9.594;2023-01-24T04:08:51;28.40;;;8.97;;
18200;SDS011;9226;47.858;9.594;2023-01-24T04:11:16;25.03;;;9.20;;
18200;SDS011;9226;47.858;9.594;2023-01-24T04:13:42;26.47;;;8.50;;
18200;SDS011;9226;47.858;9.594;2023-01-24T04:16:07;24.97;;;8.33;;
18200;SDS011;9226;47.858;9.594;2023-01-24T04:18:34;30.90;;;9.60;;
18200;SDS011;9226;47.858;9.594;2023-01-24T04:21:01;27.30;;;8.77;;
18200;SDS011;9226;47.858;9.594;2023-01-24T04:23:28;28.53;;;8.83;;
18200;SDS011;9226;47.858;9.594;2023-01-24T04:25:53;23.07;;;8.03;;
18200;SDS011;9226;47.858;9.594;2023-01-24T04:28:24;30.37;;;9.43;;
18200;SDS011;9226;47.858;9.594;2023-01-24T04:30:59;21.83;;;8.57;;
18200;SDS011;9226;47.858;9.594;2023-01-24T04:33:26;23.00;;;8.43;;
18200;SDS011;9226;47.858;9.594;2023-01-24T04:35:56;23.67;;;8.03;;
18200;SDS011;9226;47.858;9.594;2023-01-24T04:38:22;23.93;;;8.40;;
18200;SDS011;9226;47.858;9.594;2023-01-24T04:40:55;23.03;;;8.13;;
18200;SDS011;9226;47.858;9.594;2023-01-24T04:43:24;23.37;;;8.17;;
18200;SDS011;9226;47.858;9.594;2023-01-24T04:45:53;20.87;;;8.97;;
18200;SDS011;9226;47.858;9.594;2023-01-24T04:48:20;21.63;;;7.43;;
18200;SDS011;9226;47.858;9.594;2023-01-24T04:50:45;19.07;;;8.20;;
18200;SDS011;9226;47.858;9.594;2023-01-24T04:53:10;21.10;;;7.30;;
18200;SDS011;9226;47.858;9.594;2023-01-24T04:55:36;20.20;;;7.90;;
18200;SDS011;9226;47.858;9.594;2023-01-24T04:58:01;15.67;;;6.80;;
18200;SDS011;9226;47.858;9.594;2023-01-24T05:00:26;18.03;;;7.17;;
18200;SDS011;9226;47.858;9.594;2023-01-24T05:02:52;23.10;;;8.23;;
18200;SDS011;9226;47.858;9.594;2023-01-24T05:05:18;18.33;;;6.97;;
18200;SDS011;9226;47.858;9.594;2023-01-24T05:07:44;17.57;;;7.23;;
18200;SDS011;9226;47.858;9.594;2023-01-24T05:10:09;24.80;;;8.37;;
18200;SDS011;9226;47.858;9.594;2023-01-24T05:12:35;19.20;;;7.37;;
18200;SDS011;9226;47.858;9.594;2023-01-24T05:15:00;18.17;;;6.97;;
18200;SDS011;9226;47.858;9.594;2023-01-24T05:17:26;17.93;;;7.33;;
18200;SDS011;9226;47.858;9.594;2023-01-24T05:19:51;17.80;;;7.20;;
18200;SDS011;9226;47.858;9.594;2023-01-24T05:22:16;18.10;;;6.93;;
18200;SDS011;9226;47.858;9.594;2023-01-24T05:24:42;20.43;;;7.00;;
18200;SDS011;9226;47.858;9.594;2023-01-24T05:27:07;20.67;;;7.07;;
18200;SDS011;9226;47.858;9.594;2023-01-24T05:29:33;18.23;;;7.33;;
18200;SDS011;9226;47.858;9.594;2023-01-24T05:31:58;20.43;;;7.20;;
18200;SDS011;9226;47.858;9.594;2023-01-24T05:34:24;19.13;;;6.53;;
18200;SDS011;9226;47.858;9.594;2023-01-24T05:36:49;19.37;;;7.13;;
18200;SDS011;9226;47.858;9.594;2023-01-24T05:39:14;16.80;;;6.17;;
18200;SDS011;9226;47.858;9.594;2023-01-24T05:41:40;18.50;;;6.43;;
18200;SDS011;9226;47.858;9.594;2023-01-24T05:44:05;18.63;;;6.93;;
18200;SDS011;9226;47.858;9.594;2023-01-24T05:46:31;16.77;;;7.03;;
18200;SDS011;9226;47.858;9.594;2023-01-24T05:48:56;19.13;;;7.00;;
18200;SDS011;9226;47.858;9.594;2023-01-24T05:51:22;19.00;;;6.83;;
18200;SDS011;9226;47.858;9.594;2023-01-24T05:53:47;20.17;;;7.47;;
18200;SDS011;9226;47.858;9.594;2023-01-24T05:56:14;15.90;;;6.50;;
18200;SDS011;9226;47.858;9.594;2023-01-24T05:58:44;17.83;;;6.83;;
18200;SDS011;9226;47.858;9.594;2023-01-24T06:01:14;16.93;;;6.07;;
18200;SDS011;9226;47.858;9.594;2023-01-24T06:03:42;18.10;;;7.20;;
18200;SDS011;9226;47.858;9.594;2023-01-24T06:06:08;14.87;;;5.57;;
18200;SDS011;9226;47.858;9.594;2023-01-24T06:08:35;16.80;;;6.07;;
18200;SDS011;9226;47.858;9.594;2023-01-24T06:11:02;15.47;;;6.07;;
18200;SDS011;9226;47.858;9.594;2023-01-24T06:13:30;17.73;;;6.90;;
18200;SDS011;9226;47.858;9.594;2023-01-24T06:16:06;16.10;;;6.13;;
18200;SDS011;9226;47.858;9.594;2023-01-24T06:18:34;17.63;;;6.50;;
18200;SDS011;9226;47.858;9.594;2023-01-24T06:23:33;14.47;;;5.77;;
18200;SDS011;9226;47.858;9.594;2023-01-24T06:25:59;16.63;;;6.30;;
18200;SDS011;9226;47.858;9.594;2023-01-24T06:28:24;18.67;;;7.03;;
18200;SDS011;9226;47.858;9.594;2023-01-24T06:30:53;17.63;;;6.77;;
18200;SDS011;9226;47.858;9.594;2023-01-24T06:39:00;16.13;;;6.60;;
18200;SDS011;9226;47.858;9.594;2023-01-24T06:41:26;14.30;;;5.37;;
18200;SDS011;9226;47.858;9.594;2023-01-24T06:43:52;18.10;;;6.90;;
18200;SDS011;9226;47.858;9.594;2023-01-24T06:46:18;16.03;;;6.27;;
18200;SDS011;9226;47.858;9.594;2023-01-24T06:48:43;17.13;;;6.43;;
18200;SDS011;9226;47.858;9.594;2023-01-24T06:51:10;18.43;;;7.33;;
18200;SDS011;9226;47.858;9.594;2023-01-24T06:53:38;17.00;;;7.17;;
18200;SDS011;9226;47.858;9.594;2023-01-24T06:56:03;14.50;;;5.47;;
18200;SDS011;9226;47.858;9.594;2023-01-24T06:58:29;18.87;;;6.73;;
18200;SDS011;9226;47.858;9.594;2023-01-24T07:00:54;17.17;;;6.67;;
18200;SDS011;9226;47.858;9.594;2023-01-24T07:03:19;19.50;;;6.87;;
18200;SDS011;9226;47.858;9.594;2023-01-24T07:05:45;17.17;;;7.10;;
18200;SDS011;9226;47.858;9.594;2023-01-24T07:08:12;16.23;;;7.63;;
18200;SDS011;9226;47.858;9.594;2023-01-24T07:10:38;22.50;;;8.03;;
18200;SDS011;9226;47.858;9.594;2023-01-24T07:13:04;16.87;;;7.23;;
18200;SDS011;9226;47.858;9.594;2023-01-24T07:15:29;18.90;;;7.33;;
18200;SDS011;9226;47.858;9.594;2023-01-24T07:17:55;19.47;;;7.57;;
18200;SDS011;9226;47.858;9.594;2023-01-24T07:20:21;23.53;;;7.10;;
18200;SDS011;9226;47.858;9.594;2023-01-24T07:22:46;19.57;;;7.43;;
18200;SDS011;9226;47.858;9.594;2023-01-24T07:25:13;20.13;;;7.63;;
18200;SDS011;9226;47.858;9.594;2023-01-24T07:27:41;17.77;;;7.40;;
18200;SDS011;9226;47.858;9.594;2023-01-24T07:30:08;16.53;;;6.53;;
18200;SDS011;9226;47.858;9.594;2023-01-24T07:32:34;15.43;;;6.20;;
18200;SDS011;9226;47.858;9.594;2023-01-24T07:34:59;19.57;;;6.73;;
18200;SDS011;9226;47.858;9.594;2023-01-24T07:37:24;13.00;;;5.90;;
18200;SDS011;9226;47.858;9.594;2023-01-24T07:39:50;19.57;;;7.07;;
18200;SDS011;9226;47.858;9.594;2023-01-24T07:42:15;17.57;;;7.10;;
18200;SDS011;9226;47.858;9.594;2023-01-24T07:44:41;16.20;;;6.80;;
18200;SDS011;9226;47.858;9.594;2023-01-24T07:47:06;18.07;;;6.20;;
18200;SDS011;9226;47.858;9.594;2023-01-24T07:49:31;15.33;;;6.87;;
18200;SDS011;9226;47.858;9.594;2023-01-24T07:51:57;16.60;;;6.60;;
18200;SDS011;9226;47.858;9.594;2023-01-24T07:54:22;20.77;;;7.63;;
18200;SDS011;9226;47.858;9.594;2023-01-24T07:56:48;16.70;;;6.83;;
18200;SDS011;9226;47.858;9.594;2023-01-24T07:59:13;16.20;;;6.40;;
18200;SDS011;9226;47.858;9.594;2023-01-24T08:01:38;18.60;;;6.33;;
18200;SDS011;9226;47.858;9.594;2023-01-24T08:04:04;20.40;;;6.93;;
18200;SDS011;9226;47.858;9.594;2023-01-24T08:06:30;17.03;;;5.77;;
18200;SDS011;9226;47.858;9.594;2023-01-24T08:08:55;13.80;;;5.77;;
18200;SDS011;9226;47.858;9.594;2023-01-24T08:11:21;19.03;;;6.43;;
18200;SDS011;9226;47.858;9.594;2023-01-24T08:13:47;15.23;;;6.27;;
18200;SDS011;9226;47.858;9.594;2023-01-24T08:16:13;15.40;;;6.63;;
18200;SDS011;9226;47.858;9.594;2023-01-24T08:18:38;19.53;;;6.93;;
18200;SDS011;9226;47.858;9.594;2023-01-24T08:21:05;20.23;;;7.40;;
18200;SDS011;9226;47.858;9.594;2023-01-24T08:23:31;17.53;;;6.83;;
18200;SDS011;9226;47.858;9.594;2023-01-24T08:25:57;17.13;;;7.13;;
18200;SDS011;9226;47.858;9.594;2023-01-24T08:28:23;15.60;;;6.53;;
18200;SDS011;9226;47.858;9.594;2023-01-24T08:30:48;16.87;;;6.27;;
18200;SDS011;9226;47.858;9.594;2023-01-24T08:33:14;16.30;;;6.77;;
18200;SDS011;9226;47.858;9.594;2023-01-24T08:35:43;15.93;;;6.40;;
18200;SDS011;9226;47.858;9.594;2023-01-24T08:38:10;17.10;;;7.33;;
18200;SDS011;9226;47.858;9.594;2023-01-24T08:40:39;19.07;;;6.73;;
18200;SDS011;9226;47.858;9.594;2023-01-24T08:43:05;19.63;;;7.30;;
18200;SDS011;9226;47.858;9.594;2023-01-24T08:45:31;21.00;;;7.40;;
18200;SDS011;9226;47.858;9.594;2023-01-24T08:47:57;18.67;;;7.23;;
18200;SDS011;9226;47.858;9.594;2023-01-24T08:50:22;18.77;;;8.17;;
18200;SDS011;9226;47.858;9.594;2023-01-24T08:52:48;18.17;;;7.30;;
18200;SDS011;9226;47.858;9.594;2023-01-24T08:55:14;17.23;;;7.83;;
18200;SDS011;9226;47.858;9.594;2023-01-24T08:57:40;20.27;;;7.70;;
18200;SDS011;9226;47.858;9.594;2023-01-24T09:00:05;21.53;;;7.43;;
18200;SDS011;9226;47.858;9.594;2023-01-24T09:02:32;18.03;;;8.13;;
18200;SDS011;9226;47.858;9.594;2023-01-24T09:04:59;19.70;;;7.50;;
18200;SDS011;9226;47.858;9.594;2023-01-24T09:07:25;18.53;;;7.53;;
18200;SDS011;9226;47.858;9.594;2023-01-24T09:09:50;20.70;;;7.10;;
18200;SDS011;9226;47.858;9.594;2023-01-24T09:12:15;26.70;;;7.23;;
18200;SDS011;9226;47.858;9.594;2023-01-24T09:14:41;20.23;;;8.10;;
18200;SDS011;9226;47.858;9.594;2023-01-24T09:17:06;22.13;;;7.90;;
18200;SDS011;9226;47.858;9.594;2023-01-24T09:19:31;20.27;;;7.60;;
18200;SDS011;9226;47.858;9.594;2023-01-24T09:21:57;19.60;;;7.13;;
18200;SDS011;9226;47.858;9.594;2023-01-24T09:24:23;17.33;;;6.70;;
18200;SDS011;9226;47.858;9.594;2023-01-24T09:26:49;16.90;;;6.93;;
18200;SDS011;9226;47.858;9.594;2023-01-24T09:29:15;18.97;;;7.33;;
18200;SDS011;9226;47.858;9.594;2023-01-24T09:31:40;21.67;;;7.17;;
18200;SDS011;9226;47.858;9.594;2023-01-24T09:34:06;20.87;;;6.80;;
18200;SDS011;9226;47.858;9.594;2023-01-24T09:36:31;19.70;;;6.93;;
18200;SDS011;9226;47.858;9.594;2023-01-24T09:38:57;16.63;;;6.87;;
18200;SDS011;9226;47.858;9.594;2023-01-24T09:41:41;15.60;;;6.67;;
18200;SDS011;9226;47.858;9.594;2023-01-24T09:44:30;16.43;;;6.93;;
18200;SDS011;9226;47.858;9.594;2023-01-24T09:48:13;15.63;;;5.87;;
18200;SDS011;9226;47.858;9.594;2023-01-24T09:50:26;18.13;;;6.10;;
18200;SDS011;9226;47.858;9.594;2023-01-24T09:53:21;19.10;;;6.80;;
18200;SDS011;9226;47.858;9.594;2023-01-24T09:55:51;16.17;;;6.13;;
18200;SDS011;9226;47.858;9.594;2023-01-24T09:58:38;17.13;;;7.07;;
18200;SDS011;9226;47.858;9.594;2023-01-24T10:01:12;17.03;;;7.17;;
18200;SDS011;9226;47.858;9.594;2023-01-24T10:03:39;14.57;;;6.10;;
18200;SDS011;9226;47.858;9.594;2023-01-24T10:06:11;14.13;;;6.87;;
18200;SDS011;9226;47.858;9.594;2023-01-24T10:08:55;18.00;;;6.60;;
18200;SDS011;9226;47.858;9.594;2023-01-24T10:11:34;21.97;;;7.67;;
18200;SDS011;9226;47.858;9.594;2023-01-24T10:25:17;16.63;;;6.70;;
18200;SDS011;9226;47.858;9.594;2023-01-24T10:27:48;18.93;;;7.70;;
18200;SDS011;9226;47.858;9.594;2023-01-24T10:33:14;22.77;;;7.00;;
18200;SDS011;9226;47.858;9.594;2023-01-24T10:35:56;20.27;;;7.90;;
18200;SDS011;9226;47.858;9.594;2023-01-24T10:38:21;20.23;;;6.87;;
18200;SDS011;9226;47.858;9.594;2023-01-24T10:40:52;22.73;;;7.10;;
18200;SDS011;9226;47.858;9.594;2023-01-24T10:43:21;18.90;;;7.47;;
18200;SDS011;9226;47.858;9.594;2023-01-24T10:51:12;19.73;;;6.70;;
18200;SDS011;9226;47.858;9.594;2023-01-24T10:53:42;16.60;;;6.43;;
18200;SDS011;9226;47.858;9.594;2023-01-24T10:56:08;15.37;;;5.70;;
18200;SDS011;9226;47.858;9.594;2023-01-24T10:58:43;13.20;;;5.90;;
18200;SDS011;9226;47.858;9.594;2023-01-24T11:04:22;17.80;;;6.40;;
18200;SDS011;9226;47.858;9.594;2023-01-24T11:06:51;13.80;;;5.87;;
18200;SDS011;9226;47.858;9.594;2023-01-24T11:09:18;13.60;;;5.60;;
18200;SDS011;9226;47.858;9.594;2023-01-24T11:11:51;15.47;;;5.83;;
18200;SDS011;9226;47.858;9.594;2023-01-24T11:14:20;15.90;;;6.27;;
18200;SDS011;9226;47.858;9.594;2023-01-24T11:16:50;16.57;;;6.40;;
18200;SDS011;9226;47.858;9.594;2023-01-24T11:21:58;13.87;;;5.53;;
18200;SDS011;9226;47.858;9.594;2023-01-24T11:24:25;16.27;;;6.37;;
18200;SDS011;9226;47.858;9.594;2023-01-24T11:26:56;14.37;;;6.03;;
18200;SDS011;9226;47.858;9.594;2023-01-24T11:29:28;13.83;;;6.00;;
18200;SDS011;9226;47.858;9.594;2023-01-24T11:31:55;19.53;;;6.23;;
18200;SDS011;9226;47.858;9.594;2023-01-24T11:34:24;15.70;;;5.60;;
18200;SDS011;9226;47.858;9.594;2023-01-24T11:36:58;15.13;;;5.93;;
18200;SDS011;9226;47.858;9.594;2023-01-24T11:51:13;14.93;;;5.53;;
18200;SDS011;9226;47.858;9.594;2023-01-24T12:07:46;20.50;;;6.87;;
18200;SDS011;9226;47.858;9.594;2023-01-24T12:13:18;26.07;;;6.83;;
18200;SDS011;9226;47.858;9.594;2023-01-24T12:16:02;17.33;;;5.90;;
18200;SDS011;9226;47.858;9.594;2023-01-24T12:18:51;21.73;;;7.47;;
18200;SDS011;9226;47.858;9.594;2023-01-24T12:21:18;17.50;;;6.77;;
18200;SDS011;9226;47.858;9.594;2023-01-24T12:26:22;16.73;;;6.57;;
18200;SDS011;9226;47.858;9.594;2023-01-24T12:32:01;18.57;;;6.87;;
18200;SDS011;9226;47.858;9.594;2023-01-24T12:34:34;16.00;;;6.50;;
18200;SDS011;9226;47.858;9.594;2023-01-24T12:40:15;16.70;;;6.83;;
18200;SDS011;9226;47.858;9.594;2023-01-24T12:45:44;21.43;;;7.17;;
18200;SDS011;9226;47.858;9.594;2023-01-24T12:48:42;19.83;;;7.13;;
18200;SDS011;9226;47.858;9.594;2023-01-24T12:51:26;19.43;;;7.37;;
18200;SDS011;9226;47.858;9.594;2023-01-24T12:53:57;23.90;;;8.13;;
18200;SDS011;9226;47.858;9.594;2023-01-24T12:59:10;20.83;;;7.20;;
18200;SDS011;9226;47.858;9.594;2023-01-24T13:01:46;25.90;;;8.00;;
18200;SDS011;9226;47.858;9.594;2023-01-24T13:10:09;19.13;;;7.40;;
18200;SDS011;9226;47.858;9.594;2023-01-24T13:12:35;21.20;;;7.30;;
18200;SDS011;9226;47.858;9.594;2023-01-24T13:28:07;18.63;;;6.93;;
18200;SDS011;9226;47.858;9.594;2023-01-24T13:30:43;16.53;;;6.17;;
18200;SDS011;9226;47.858;9.594;2023-01-24T13:33:16;18.37;;;6.33;;
18200;SDS011;9226;47.858;9.594;2023-01-24T13:35:48;18.47;;;7.37;;
18200;SDS011;9226;47.858;9.594;2023-01-24T13:41:31;15.40;;;6.87;;
18200;SDS011;9226;47.858;9.594;2023-01-24T13:49:15;18.10;;;7.50;;
18200;SDS011;9226;47.858;9.594;2023-01-24T13:51:46;13.73;;;5.80;;
18200;SDS011;9226;47.858;9.594;2023-01-24T13:59:28;16.27;;;6.20;;
18200;SDS011;9226;47.858;9.594;2023-01-24T14:01:54;16.90;;;6.23;;
18200;SDS011;9226;47.858;9.594;2023-01-24T14:04:27;15.40;;;6.17;;
18200;SDS011;9226;47.858;9.594;2023-01-24T14:07:25;14.63;;;6.17;;
18200;SDS011;9226;47.858;9.594;2023-01-24T14:10:02;14.13;;;5.80;;
18200;SDS011;9226;47.858;9.594;2023-01-24T14:12:31;16.93;;;6.30;;
18200;SDS011;9226;47.858;9.594;2023-01-24T14:20:01;16.40;;;6.50;;
18200;SDS011;9226;47.858;9.594;2023-01-24T14:22:37;18.47;;;6.13;;
18200;SDS011;9226;47.858;9.594;2023-01-24T14:27:59;15.93;;;6.47;;
18200;SDS011;9226;47.858;9.594;2023-01-24T14:30:59;15.37;;;5.90;;
18200;SDS011;9226;47.858;9.594;2023-01-24T14:33:31;19.03;;;6.27;;
18200;SDS011;9226;47.858;9.594;2023-01-24T14:41:42;16.10;;;6.27;;
18200;SDS011;9226;47.858;9.594;2023-01-24T14:44:18;19.33;;;6.80;;
18200;SDS011;9226;47.858;9.594;2023-01-24T14:46:53;21.10;;;6.33;;
18200;SDS011;9226;47.858;9.594;2023-01-24T14:49:27;14.83;;;6.27;;
18200;SDS011;9226;47.858;9.594;2023-01-24T14:51:56;19.97;;;7.30;;
18200;SDS011;9226;47.858;9.594;2023-01-24T14:54:22;18.03;;;6.60;;
18200;SDS011;9226;47.858;9.594;2023-01-24T14:56:49;17.30;;;6.73;;
18200;SDS011;9226;47.858;9.594;2023-01-24T14:59:18;19.53;;;7.27;;
18200;SDS011;9226;47.858;9.594;2023-01-24T15:01:48;19.50;;;7.03;;
18200;SDS011;9226;47.858;9.594;2023-01-24T15:04:23;17.80;;;6.37;;
18200;SDS011;9226;47.858;9.594;2023-01-24T15:09:51;19.43;;;6.90;;
18200;SDS011;9226;47.858;9.594;2023-01-24T15:14:57;17.53;;;6.70;;
18200;SDS011;9226;47.858;9.594;2023-01-24T15:17:27;19.90;;;6.20;;
18200;SDS011;9226;47.858;9.594;2023-01-24T15:19:58;19.17;;;6.47;;
18200;SDS011;9226;47.858;9.594;2023-01-24T15:22:30;22.63;;;7.97;;
18200;SDS011;9226;47.858;9.594;2023-01-24T15:25:01;19.83;;;6.87;;
18200;SDS011;9226;47.858;9.594;2023-01-24T15:32:58;25.00;;;6.73;;
18200;SDS011;9226;47.858;9.594;2023-01-24T15:40:34;16.53;;;6.03;;
18200;SDS011;9226;47.858;9.594;2023-01-24T15:43:01;20.83;;;6.70;;
18200;SDS011;9226;47.858;9.594;2023-01-24T15:45:48;21.63;;;6.30;;
18200;SDS011;9226;47.858;9.594;2023-01-24T15:48:36;17.67;;;6.67;;
18200;SDS011;9226;47.858;9.594;2023-01-24T15:51:01;18.07;;;6.13;;
18200;SDS011;9226;47.858;9.594;2023-01-24T15:53:41;19.23;;;6.77;;
18200;SDS011;9226;47.858;9.594;2023-01-24T15:56:16;20.30;;;6.53;;
18200;SDS011;9226;47.858;9.594;2023-01-24T15:58:46;15.60;;;6.70;;
18200;SDS011;9226;47.858;9.594;2023-01-24T16:01:13;20.67;;;6.37;;
18200;SDS011;9226;47.858;9.594;2023-01-24T16:03:39;20.07;;;6.33;;
18200;SDS011;9226;47.858;9.594;2023-01-24T16:06:04;17.37;;;6.23;;
18200;SDS011;9226;47.858;9.594;2023-01-24T16:08:30;20.23;;;7.40;;
18200;SDS011;9226;47.858;9.594;2023-01-24T16:10:55;15.40;;;6.43;;
18200;SDS011;9226;47.858;9.594;2023-01-24T16:13:33;20.80;;;6.80;;
18200;SDS011;9226;47.858;9.594;2023-01-24T16:16:04;16.73;;;6.83;;
18200;SDS011;9226;47.858;9.594;2023-01-24T16:18:31;18.63;;;7.07;;
18200;SDS011;9226;47.858;9.594;2023-01-24T16:20:57;19.30;;;6.83;;
18200;SDS011;9226;47.858;9.594;2023-01-24T16:23:22;19.37;;;6.60;;
18200;SDS011;9226;47.858;9.594;2023-01-24T16:25:49;20.77;;;7.07;;
18200;SDS011;9226;47.858;9.594;2023-01-24T16:28:19;19.77;;;6.57;;
18200;SDS011;9226;47.858;9.594;2023-01-24T16:30:48;16.97;;;5.90;;
18200;SDS011;9226;47.858;9.594;2023-01-24T16:33:15;14.87;;;5.53;;
18200;SDS011;9226;47.858;9.594;2023-01-24T16:35:41;17.83;;;6.37;;
18200;SDS011;9226;47.858;9.594;2023-01-24T16:38:07;17.20;;;6.57;;
18200;SDS011;9226;47.858;9.594;2023-01-24T16:40:37;17.97;;;6.17;;
18200;SDS011;9226;47.858;9.594;2023-01-24T16:43:03;15.13;;;6.30;;
18200;SDS011;9226;47.858;9.594;2023-01-24T16:45:31;20.07;;;6.10;;
18200;SDS011;9226;47.858;9.594;2023-01-24T16:47:57;15.90;;;6.00;;
18200;SDS011;9226;47.858;9.594;2023-01-24T16:50:22;15.60;;;5.97;;
18200;SDS011;9226;47.858;9.594;2023-01-24T16:52:48;21.37;;;6.63;;
18200;SDS011;9226;47.858;9.594;2023-01-24T16:55:14;15.80;;;5.63;;
18200;SDS011;9226;47.858;9.594;2023-01-24T16:57:40;17.53;;;6.47;;
18200;SDS011;9226;47.858;9.594;2023-01-24T17:00:07;17.80;;;6.70;;
18200;SDS011;9226;47.858;9.594;2023-01-24T17:02:37;15.50;;;6.20;;
18200;SDS011;9226;47.858;9.594;2023-01-24T17:05:06;20.60;;;6.37;;
18200;SDS011;9226;47.858;9.594;2023-01-24T17:07:31;16.17;;;5.67;;
18200;SDS011;9226;47.858;9.594;2023-01-24T17:09:57;17.13;;;5.60;;
18200;SDS011;9226;47.858;9.594;2023-01-24T17:12:22;16.40;;;6.10;;
18200;SDS011;9226;47.858;9.594;2023-01-24T17:14:47;16.40;;;6.07;;
18200;SDS011;9226;47.858;9.594;2023-01-24T17:17:13;14.43;;;5.83;;
18200;SDS011;9226;47.858;9.594;2023-01-24T17:19:38;19.37;;;6.77;;
18200;SDS011;9226;47.858;9.594;2023-01-24T17:22:04;16.67;;;6.67;;
18200;SDS011;9226;47.858;9.594;2023-01-24T17:24:30;14.13;;;5.87;;